Thursday, September 20, 2018, 10:45 PM GMT
Back to Local

CYWA, Petawawa, Ont.

Location: , , Canada Lat: 45.95
Local Time: 10:45 PM GMT (22:45 GMT) Lon: -77.317
Time Zone: GMT Elev: 426 ft

Show me the last for .
Show Decoded

2018-09-20 22:35 METAR CYWA 202235Z AUTO 16003KT 130V200 9SM -RA FEW021 FEW069 FEW082 FEW091
                 16/12 A3020 =
2018-09-20 22:30 METAR CYWA 202230Z AUTO 17002KT 9SM SCT021 SCT082 SCT091 16/12 A3020 =
2018-09-20 22:00 METAR CYWA 202200Z AUTO 14006KT 090V160 9SM BKN021 16/12 A3020 RMK SLP230 =
2018-09-20 21:00 METAR CYWA 202100Z AUTO 12004KT 9SM OVC021 OVC084 OVC094 16/12 A3022 RMK SLP236
                 =
2018-09-20 20:53 METAR CYWA 202053Z AUTO 13005KT 100V170 9SM SCT021 BKN027 BKN084 BKN094 16/12
                 A3021 =
2018-09-20 20:47 METAR CYWA 202047Z AUTO 14004KT 080V170 9SM BKN021 BKN084 BKN094 16/12 A3021 =
2018-09-20 20:00 METAR CYWA 202000Z AUTO 16005KT 120V180 9SM FEW020 FEW085 16/12 A3020 RMK SLP231
                 =
2018-09-20 19:00 METAR CYWA 201900Z AUTO 13007KT 9SM FEW081 16/12 A3021 RMK SLP235 =
2018-09-20 18:00 METAR CYWA 201800Z AUTO 13005KT 090V150 9SM FEW085 16/12 A3024 RMK SLP246 =
2018-09-20 17:00 METAR CYWA 201700Z AUTO 09003KT 050V130 9SM FEW012 BKN077 BKN092 15/12 A3025 RMK
                 SLP249 =
2018-09-20 16:00 METAR CYWA 201600Z AUTO 13002KT 9SM FEW010 BKN077 14/11 A3026 RMK SLP249 =
2018-09-20 15:39 METAR CYWA 201539Z AUTO 07002KT 9SM SCT010 OVC077 14/12 A3026 =
2018-09-20 15:28 METAR CYWA 201528Z AUTO 10002KT 9SM BKN010 OVC077 13/12 A3026 =
2018-09-20 15:21 METAR CYWA 201521Z AUTO 00000KT 9SM BKN009 OVC081 13/12 A3025 =
2018-09-20 15:09 METAR CYWA 201509Z AUTO 11003KT 020V190 9SM SCT008 BKN083 13/12 A3025 =
2018-09-20 15:02 METAR CYWA 201502Z AUTO 06002KT 9SM BKN008 BKN083 13/12 A3025 =
2018-09-20 15:00 METAR CYWA 201500Z AUTO 00000KT 9SM SCT008 BKN083 13/12 A3025 RMK SLP248 =
2018-09-20 14:59 METAR CYWA 201459Z AUTO 00000KT 9SM SCT008 BKN083 13/12 A3025 =
2018-09-20 14:00 METAR CYWA 201400Z AUTO 22002KT 9SM BKN006 OVC092 12/11 A3023 RMK SLP242 =
2018-09-20 13:48 METAR CYWA 201348Z 14003KT 15SM FEW007 BKN020 BKN092 12/11 A3022 RMK SF2SC2AC2
                 DA3FT LAST STFD OBS SLP238 =
2018-09-20 13:00 METAR CYWA 201300Z 15003KT 120V210 15SM FEW004 BKN020 BKN090 12/11 A3021 RMK
                 SF2SC4AC1 DA-9FT FG OVR RIVER SLP234 =
2018-09-20 12:25 METAR CYWA 201225Z 24003KT 15SM SCT004 BKN020 OVC090 11/11 A3022 RMK SF3SC4AC1
                 DA-70FT SLP236 =
2018-09-20 12:00 METAR CYWA 201200Z 00000KT 15SM -SHRA SCT003 BKN020 OVC090 10/10 A3021 RMK
                 SF3SC4AC1 DA-192FT SLP233 =
2018-09-20 11:53 METAR CYWA 201153Z 00000KT 15SM -SHRA FEW003 BKN020 BKN090 10/10 A3021 RMK
                 SF2SC4AC1 DA-219FT SLP234 =
2018-09-20 11:00 METAR CYWA 201100Z 00000KT 15SM FEW005 BKN020 BKN090 10/10 A3021 RMK SF2SC4AC1
                 DA-281FT FST STFD OBS SLP234 =
2018-09-20 10:54 METAR CYWA 201054Z AUTO 00000KT 9SM FEW002 BKN006 10/10 A3021 =
2018-09-20 10:40 METAR CYWA 201040Z AUTO 24005KT 9SM SCT002 09/09 A3022 =
2018-09-20 10:30 METAR CYWA 201030Z AUTO 27004KT 210V290 9SM BKN002 09/09 A3021 =
2018-09-20 10:06 METAR CYWA 201006Z AUTO 19004KT 140V220 9SM FEW004 09/09 A3018 =
2018-09-20 10:00 METAR CYWA 201000Z AUTO 20003KT 110V210 9SM BKN004 09/09 A3019 RMK SLP225 =
2018-09-20 09:59 METAR CYWA 200959Z AUTO 20003KT 110V220 9SM BKN004 09/09 A3018 =
2018-09-20 09:51 METAR CYWA 200951Z AUTO 20003KT 9SM SCT003 09/09 A3018 =
2018-09-20 09:47 METAR CYWA 200947Z AUTO 23002KT 9SM BKN003 09/09 A3019 =
2018-09-20 09:43 METAR CYWA 200943Z AUTO 23004KT 9SM FEW003 08/08 A3019 =
2018-09-20 09:39 METAR CYWA 200939Z AUTO 23002KT 9SM BKN003 09/09 A3019 =
2018-09-20 09:15 METAR CYWA 200915Z AUTO 00000KT 9SM OVC002 09/09 A3018 =
2018-09-20 09:13 METAR CYWA 200913Z AUTO 00000KT 9SM BKN003 09/09 A3019 =
2018-09-20 09:00 METAR CYWA 200900Z AUTO 22002KT 9SM CLR 08/08 A3019 RMK SLP228 =
2018-09-20 08:00 METAR CYWA 200800Z AUTO 26003KT 9SM CLR 08/08 A3019 RMK SLP225 =
2018-09-20 07:00 METAR CYWA 200700Z AUTO 25002KT 9SM CLR 07/07 A3018 RMK SLP224 =
2018-09-20 06:00 METAR CYWA 200600Z AUTO 27002KT 9SM CLR 07/07 A3017 RMK SLP219 =
2018-09-20 05:00 METAR CYWA 200500Z AUTO 27002KT 9SM CLR 08/07 A3016 RMK SLP218 =
2018-09-20 04:00 METAR CYWA 200400Z AUTO 00000KT 9SM CLR 08/08 A3015 RMK SLP214 =
2018-09-20 03:00 METAR CYWA 200300Z AUTO 00000KT 9SM CLR 09/08 A3015 RMK SLP215 =
2018-09-20 02:00 METAR CYWA 200200Z AUTO 16002KT 9SM CLR 09/08 A3014 RMK SLP212 =
2018-09-20 01:00 METAR CYWA 200100Z AUTO 21002KT 9SM CLR 10/09 A3014 RMK SLP212 =
2018-09-20 00:00 METAR CYWA 200000Z AUTO 22002KT 9SM CLR 12/10 A3013 RMK SLP207 =
2018-09-19 23:00 METAR CYWA 192300Z AUTO 19002KT 9SM CLR 15/10 A3013 RMK SLP205 =

Support USWX by starting your Amazon purchase here.